Details From DABC - MOHAMED BOUDIAF INTL
To DAAE - SOUMMAM
Flight Number -
Tags generated
Created
Modified
Stats Distance 80 nm / 147 km
Max Altitude 400 ft / 122 m
Waypoints 3
Social Downloads 0
Likes 0
Share VATSIM

Download

Looking for another format? Having issues loading an existing format? Contact us
Advertisement - Login to hide

Notes

Basic altitude profile: - Ascent Rate: 2500ft/min - Ascent Speed: 250kts - Cruise Altitude: 35000ft - Cruise Speed: 420kts - Descent Rate: 1500ft/min - Descent Speed: 250kts Options: - Use NATs: yes - Use PACOTS: yes - Use low airways: yes - Use high airways: yes

Route

DABC CSO DAAE

ID Type Via Altitude Latitude Longitude Leg Dist Tot Dist Heading (true) Name
O DABC APT - 0 ft / 0 m 36.27604˚ 6.62028˚ - 0 nm - MOHAMED BOUDIAF INTL
CSO VOR - 400 ft / 122 m 36.29261˚ 6.60555˚ 1 nm 1 nm 324° / 324° CONSTANTINE VOR-DME
O DAAE APT - 0 ft / 0 m 36.71181˚ 5.06986˚ 78 nm 79 nm 289° / 288° SOUMMAM

Altitude Profile

Advertisement - Login to hide

DABC

Details ICAO DABC (CZL)
Name MOHAMED BOUDIAF INTL
Region Algeria
Timezone Africa/Algiers (UTC+1.0)
Stats Elevation 2,265 ft / 690 m (AMSL)
Location 36.276042° 6.620278°
Runways 2
Magnetic Variation 1.730° E

METAR

DABC 121800Z 27007KT 9999 FEW033 BKN100 13/02 Q1017

Decode

TAF

TAF DABC 121700Z 1218/1318 25008KT 9999 FEW033 SCT090 PROB30 TEMPO 1300/1306 -RA FEW023TCU

Decode

Departure Runways

ID Width Length Bearing (true) Bearing (mag) Surface Threshold Offset Overrun Length
14 148 ft / 45 m 7,886 ft / 2,404 m 136.03° 134.30° Asphalt 0 ft / 0 m 340 ft / 104 m
16 148 ft / 45 m 9,871 ft / 3,009 m 159.14° 157.41° Asphalt 0 ft / 0 m 400 ft / 122 m
32 148 ft / 45 m 7,886 ft / 2,404 m 316.04° 314.31° Asphalt 0 ft / 0 m 200 ft / 61 m
34 148 ft / 45 m 9,871 ft / 3,009 m 339.15° 337.42° Asphalt 0 ft / 0 m 400 ft / 122 m

DAAE

Details ICAO DAAE (BJA)
Name SOUMMAM
Region Algeria
Timezone Africa/Algiers (UTC+1.0)
Stats Elevation 20 ft / 6 m (AMSL)
Location 36.711805° 5.069862°
Runways 1
Magnetic Variation 1.445° E

METAR

DAAE 121800Z 00000KT 9999 FEW023 BKN100 14/10 Q1017

Decode

TAF

TAF DAAE 121700Z 1218/1318 25008KT 8000 FEW015 BKN050 TEMPO 1221/1306 5000 -RA SCT020TCU

Decode

Destination Runways

ID Width Length Bearing (true) Bearing (mag) Surface Threshold Offset Overrun Length
08 148 ft / 45 m 7,831 ft / 2,387 m 80.31° 78.87° Asphalt 0 ft / 0 m 204 ft / 62 m
26 148 ft / 45 m 7,831 ft / 2,387 m 260.32° 258.88° Asphalt 0 ft / 0 m 113 ft / 34 m

Approach Navaids

Runway Type Ident Frequency Range Bearing (true) Bearing (mag) Slope Elevation
26 Localiser BJ 110.50 MHz 18 nm / 33 km 261.39° 259.95° - 20 ft / 6 m (AMSL)
26 DME BJ 110.50 MHz 18 nm / 33 km - - - 20 ft / 6 m (AMSL)